sensor_id;sensor_type;location;lat;lon;timestamp;temperature;humidity
3312;DHT22;1668;49.648;8.570;2023-01-19T00:00:00;-1.20;1.00
3312;DHT22;1668;49.648;8.570;2023-01-19T00:02:27;-1.20;1.00
3312;DHT22;1668;49.648;8.570;2023-01-19T00:04:54;-1.30;1.00
3312;DHT22;1668;49.648;8.570;2023-01-19T00:07:21;-1.30;1.00
3312;DHT22;1668;49.648;8.570;2023-01-19T00:09:47;-1.30;1.00
3312;DHT22;1668;49.648;8.570;2023-01-19T00:12:16;-1.30;1.00
3312;DHT22;1668;49.648;8.570;2023-01-19T00:14:43;-1.30;43.80
3312;DHT22;1668;49.648;8.570;2023-01-19T00:17:09;-1.30;99.90
3312;DHT22;1668;49.648;8.570;2023-01-19T00:19:36;-1.30;99.90
3312;DHT22;1668;49.648;8.570;2023-01-19T00:22:03;-1.30;99.90
3312;DHT22;1668;49.648;8.570;2023-01-19T00:24:30;-1.30;1.00
3312;DHT22;1668;49.648;8.570;2023-01-19T00:26:57;-1.30;1.00
3312;DHT22;1668;49.648;8.570;2023-01-19T00:29:26;-1.30;1.00
3312;DHT22;1668;49.648;8.570;2023-01-19T00:31:55;-1.30;1.00
3312;DHT22;1668;49.648;8.570;2023-01-19T00:34:22;-1.30;1.00
3312;DHT22;1668;49.648;8.570;2023-01-19T00:36:48;-1.30;1.00
3312;DHT22;1668;49.648;8.570;2023-01-19T00:39:15;-1.30;1.00
3312;DHT22;1668;49.648;8.570;2023-01-19T00:41:42;-1.30;1.00
3312;DHT22;1668;49.648;8.570;2023-01-19T00:44:23;-1.30;1.00
3312;DHT22;1668;49.648;8.570;2023-01-19T00:46:51;-1.30;1.00
3312;DHT22;1668;49.648;8.570;2023-01-19T00:49:18;-1.30;1.00
3312;DHT22;1668;49.648;8.570;2023-01-19T00:51:45;-1.30;1.00
3312;DHT22;1668;49.648;8.570;2023-01-19T00:54:12;-1.30;1.00
3312;DHT22;1668;49.648;8.570;2023-01-19T00:56:39;-1.30;23.70
3312;DHT22;1668;49.648;8.570;2023-01-19T00:59:05;-1.30;19.80
3312;DHT22;1668;49.648;8.570;2023-01-19T01:01:32;-1.20;45.30
3312;DHT22;1668;49.648;8.570;2023-01-19T01:04:01;-1.20;27.60
3312;DHT22;1668;49.648;8.570;2023-01-19T01:06:27;-1.20;42.20
3312;DHT22;1668;49.648;8.570;2023-01-19T01:08:54;-1.20;62.40
3312;DHT22;1668;49.648;8.570;2023-01-19T01:11:21;-1.20;93.00
3312;DHT22;1668;49.648;8.570;2023-01-19T01:13:48;-1.20;77.00
3312;DHT22;1668;49.648;8.570;2023-01-19T01:16:15;-1.20;76.10
3312;DHT22;1668;49.648;8.570;2023-01-19T01:18:42;-1.20;55.40
3312;DHT22;1668;49.648;8.570;2023-01-19T01:21:11;-1.20;25.50
3312;DHT22;1668;49.648;8.570;2023-01-19T01:23:38;-1.10;3.60
3312;DHT22;1668;49.648;8.570;2023-01-19T01:26:06;-1.10;1.00
3312;DHT22;1668;49.648;8.570;2023-01-19T01:28:40;-1.20;1.00
3312;DHT22;1668;49.648;8.570;2023-01-19T01:31:07;-1.10;52.10
3312;DHT22;1668;49.648;8.570;2023-01-19T01:33:34;-1.10;96.60
3312;DHT22;1668;49.648;8.570;2023-01-19T01:36:00;-1.10;94.60
3312;DHT22;1668;49.648;8.570;2023-01-19T01:38:29;-1.10;99.90
3312;DHT22;1668;49.648;8.570;2023-01-19T01:40:55;-1.10;87.50
3312;DHT22;1668;49.648;8.570;2023-01-19T01:43:22;-1.10;90.70
3312;DHT22;1668;49.648;8.570;2023-01-19T01:45:49;-1.10;91.10
3312;DHT22;1668;49.648;8.570;2023-01-19T01:48:21;-1.10;97.30
3312;DHT22;1668;49.648;8.570;2023-01-19T01:50:52;-1.10;99.90
3312;DHT22;1668;49.648;8.570;2023-01-19T01:53:40;-1.10;99.90
3312;DHT22;1668;49.648;8.570;2023-01-19T01:56:10;-1.10;99.90
3312;DHT22;1668;49.648;8.570;2023-01-19T01:58:39;-1.10;99.90
3312;DHT22;1668;49.648;8.570;2023-01-19T02:01:06;-1.20;99.90
3312;DHT22;1668;49.648;8.570;2023-01-19T02:03:51;-1.20;99.90
3312;DHT22;1668;49.648;8.570;2023-01-19T02:06:19;-1.20;99.90
3312;DHT22;1668;49.648;8.570;2023-01-19T02:08:52;-1.20;99.90
3312;DHT22;1668;49.648;8.570;2023-01-19T02:11:40;-1.20;99.90
3312;DHT22;1668;49.648;8.570;2023-01-19T02:14:24;-1.20;99.90
3312;DHT22;1668;49.648;8.570;2023-01-19T02:16:51;-1.20;99.90
3312;DHT22;1668;49.648;8.570;2023-01-19T02:19:21;-1.20;99.90
3312;DHT22;1668;49.648;8.570;2023-01-19T02:21:54;-1.20;1.00
3312;DHT22;1668;49.648;8.570;2023-01-19T02:24:28;-1.20;1.00
3312;DHT22;1668;49.648;8.570;2023-01-19T02:27:02;-1.20;1.00
3312;DHT22;1668;49.648;8.570;2023-01-19T02:29:30;-1.20;1.00
3312;DHT22;1668;49.648;8.570;2023-01-19T02:31:58;-1.20;1.00
3312;DHT22;1668;49.648;8.570;2023-01-19T02:34:27;-1.20;1.00
3312;DHT22;1668;49.648;8.570;2023-01-19T02:36:56;-1.20;1.00
3312;DHT22;1668;49.648;8.570;2023-01-19T02:39:30;-1.20;1.00
3312;DHT22;1668;49.648;8.570;2023-01-19T02:42:02;-1.20;1.00
3312;DHT22;1668;49.648;8.570;2023-01-19T02:44:29;-1.20;1.00
3312;DHT22;1668;49.648;8.570;2023-01-19T02:46:57;-1.20;1.00
3312;DHT22;1668;49.648;8.570;2023-01-19T02:49:27;-1.20;1.00
3312;DHT22;1668;49.648;8.570;2023-01-19T02:51:55;-1.20;1.00
3312;DHT22;1668;49.648;8.570;2023-01-19T02:54:34;-1.20;1.00
3312;DHT22;1668;49.648;8.570;2023-01-19T02:57:25;-1.20;1.00
3312;DHT22;1668;49.648;8.570;2023-01-19T03:00:05;-1.20;1.00
3312;DHT22;1668;49.648;8.570;2023-01-19T03:02:43;-1.20;1.00
3312;DHT22;1668;49.648;8.570;2023-01-19T03:05:24;-1.20;1.00
3312;DHT22;1668;49.648;8.570;2023-01-19T03:08:01;-1.20;1.00
3312;DHT22;1668;49.648;8.570;2023-01-19T03:10:38;-1.20;1.00
3312;DHT22;1668;49.648;8.570;2023-01-19T03:13:10;-1.20;1.00
3312;DHT22;1668;49.648;8.570;2023-01-19T03:15:44;-1.20;1.00
3312;DHT22;1668;49.648;8.570;2023-01-19T03:18:13;-1.20;1.00
3312;DHT22;1668;49.648;8.570;2023-01-19T03:20:43;-1.20;1.00
3312;DHT22;1668;49.648;8.570;2023-01-19T03:23:12;-1.10;1.00
3312;DHT22;1668;49.648;8.570;2023-01-19T03:25:43;-1.10;1.00
3312;DHT22;1668;49.648;8.570;2023-01-19T03:28:13;-1.10;1.00
3312;DHT22;1668;49.648;8.570;2023-01-19T03:30:43;-1.10;1.00
3312;DHT22;1668;49.648;8.570;2023-01-19T03:33:14;-1.10;1.00
3312;DHT22;1668;49.648;8.570;2023-01-19T03:35:44;-1.00;1.00
3312;DHT22;1668;49.648;8.570;2023-01-19T03:38:15;-1.00;1.00
3312;DHT22;1668;49.648;8.570;2023-01-19T03:40:45;-1.00;1.00
3312;DHT22;1668;49.648;8.570;2023-01-19T03:43:15;-1.00;1.00
3312;DHT22;1668;49.648;8.570;2023-01-19T03:45:43;-1.00;1.00
3312;DHT22;1668;49.648;8.570;2023-01-19T03:48:10;-0.90;1.00
3312;DHT22;1668;49.648;8.570;2023-01-19T03:50:38;-0.90;1.00
3312;DHT22;1668;49.648;8.570;2023-01-19T03:53:08;-0.90;1.00
3312;DHT22;1668;49.648;8.570;2023-01-19T03:55:36;-0.90;1.00
3312;DHT22;1668;49.648;8.570;2023-01-19T03:58:05;-0.90;1.00
3312;DHT22;1668;49.648;8.570;2023-01-19T04:00:33;-0.90;1.00
3312;DHT22;1668;49.648;8.570;2023-01-19T04:03:01;-0.90;1.00
3312;DHT22;1668;49.648;8.570;2023-01-19T04:05:28;-0.80;1.00
3312;DHT22;1668;49.648;8.570;2023-01-19T04:07:55;-0.90;1.00
3312;DHT22;1668;49.648;8.570;2023-01-19T04:10:22;-0.90;1.00
3312;DHT22;1668;49.648;8.570;2023-01-19T04:12:49;-0.90;1.00
3312;DHT22;1668;49.648;8.570;2023-01-19T04:15:17;-0.80;1.00
3312;DHT22;1668;49.648;8.570;2023-01-19T04:17:44;-0.80;1.00
3312;DHT22;1668;49.648;8.570;2023-01-19T04:20:11;-0.80;1.00
3312;DHT22;1668;49.648;8.570;2023-01-19T04:22:38;-0.80;1.00
3312;DHT22;1668;49.648;8.570;2023-01-19T04:25:07;-0.80;1.00
3312;DHT22;1668;49.648;8.570;2023-01-19T04:27:34;-0.80;1.00
3312;DHT22;1668;49.648;8.570;2023-01-19T04:30:02;-0.80;1.00
3312;DHT22;1668;49.648;8.570;2023-01-19T04:32:31;-0.80;1.00
3312;DHT22;1668;49.648;8.570;2023-01-19T04:34:58;-0.80;1.00
3312;DHT22;1668;49.648;8.570;2023-01-19T04:37:25;-0.80;1.00
3312;DHT22;1668;49.648;8.570;2023-01-19T04:39:52;-0.80;1.00
3312;DHT22;1668;49.648;8.570;2023-01-19T04:42:19;-0.80;1.00
3312;DHT22;1668;49.648;8.570;2023-01-19T04:44:46;-0.80;1.00
3312;DHT22;1668;49.648;8.570;2023-01-19T04:47:13;-0.80;1.00
3312;DHT22;1668;49.648;8.570;2023-01-19T04:49:41;-0.80;1.00
3312;DHT22;1668;49.648;8.570;2023-01-19T04:52:08;-0.80;1.00
3312;DHT22;1668;49.648;8.570;2023-01-19T04:54:35;-0.80;1.00
3312;DHT22;1668;49.648;8.570;2023-01-19T04:57:01;-0.80;1.00
3312;DHT22;1668;49.648;8.570;2023-01-19T04:59:28;-0.80;1.00
3312;DHT22;1668;49.648;8.570;2023-01-19T05:01:55;-0.80;1.00
3312;DHT22;1668;49.648;8.570;2023-01-19T05:04:23;-0.80;1.00
3312;DHT22;1668;49.648;8.570;2023-01-19T05:06:51;-0.80;1.00
3312;DHT22;1668;49.648;8.570;2023-01-19T05:09:18;-0.80;1.00
3312;DHT22;1668;49.648;8.570;2023-01-19T05:11:45;-0.80;1.00
3312;DHT22;1668;49.648;8.570;2023-01-19T05:14:12;-0.80;1.00
3312;DHT22;1668;49.648;8.570;2023-01-19T05:16:39;-0.90;1.00
3312;DHT22;1668;49.648;8.570;2023-01-19T05:19:06;-0.90;1.00
3312;DHT22;1668;49.648;8.570;2023-01-19T05:21:33;-0.90;1.00
3312;DHT22;1668;49.648;8.570;2023-01-19T05:24:01;-0.80;1.00
3312;DHT22;1668;49.648;8.570;2023-01-19T05:26:28;-0.90;1.00
3312;DHT22;1668;49.648;8.570;2023-01-19T05:28:55;-0.90;1.00
3312;DHT22;1668;49.648;8.570;2023-01-19T05:31:22;-0.90;1.00
3312;DHT22;1668;49.648;8.570;2023-01-19T05:33:49;-0.90;1.00
3312;DHT22;1668;49.648;8.570;2023-01-19T05:36:16;-0.90;1.00
3312;DHT22;1668;49.648;8.570;2023-01-19T05:38:42;-0.90;1.00
3312;DHT22;1668;49.648;8.570;2023-01-19T05:41:10;-0.90;1.00
3312;DHT22;1668;49.648;8.570;2023-01-19T05:43:38;-0.90;1.00
3312;DHT22;1668;49.648;8.570;2023-01-19T05:46:05;-0.90;1.00
3312;DHT22;1668;49.648;8.570;2023-01-19T05:48:32;-0.90;1.00
3312;DHT22;1668;49.648;8.570;2023-01-19T05:50:59;-0.90;1.00
3312;DHT22;1668;49.648;8.570;2023-01-19T05:53:27;-0.90;1.00
3312;DHT22;1668;49.648;8.570;2023-01-19T05:55:58;-1.00;1.00
3312;DHT22;1668;49.648;8.570;2023-01-19T05:58:26;-0.90;1.00
3312;DHT22;1668;49.648;8.570;2023-01-19T06:00:53;-1.00;1.00
3312;DHT22;1668;49.648;8.570;2023-01-19T06:03:20;-1.00;1.00
3312;DHT22;1668;49.648;8.570;2023-01-19T06:05:47;-1.00;1.00
3312;DHT22;1668;49.648;8.570;2023-01-19T06:08:14;-1.00;1.00
3312;DHT22;1668;49.648;8.570;2023-01-19T06:10:41;-0.90;1.00
3312;DHT22;1668;49.648;8.570;2023-01-19T06:13:07;-1.00;1.00
3312;DHT22;1668;49.648;8.570;2023-01-19T06:15:37;-1.00;1.00
3312;DHT22;1668;49.648;8.570;2023-01-19T06:18:04;-1.00;1.00
3312;DHT22;1668;49.648;8.570;2023-01-19T06:20:31;-1.00;1.00
3312;DHT22;1668;49.648;8.570;2023-01-19T06:22:57;-1.00;1.00
3312;DHT22;1668;49.648;8.570;2023-01-19T06:25:24;-1.00;1.00
3312;DHT22;1668;49.648;8.570;2023-01-19T06:27:51;-1.00;1.00
3312;DHT22;1668;49.648;8.570;2023-01-19T06:30:18;-1.00;2.30
3312;DHT22;1668;49.648;8.570;2023-01-19T06:32:46;-1.00;8.80
3312;DHT22;1668;49.648;8.570;2023-01-19T06:35:14;-0.90;17.90
3312;DHT22;1668;49.648;8.570;2023-01-19T06:37:41;-0.90;23.90
3312;DHT22;1668;49.648;8.570;2023-01-19T06:40:09;-0.90;30.00
3312;DHT22;1668;49.648;8.570;2023-01-19T06:42:36;-0.90;35.40
3312;DHT22;1668;49.648;8.570;2023-01-19T06:45:03;-0.90;38.40
3312;DHT22;1668;49.648;8.570;2023-01-19T06:47:30;-0.90;43.00
3312;DHT22;1668;49.648;8.570;2023-01-19T06:50:00;-0.90;49.30
3312;DHT22;1668;49.648;8.570;2023-01-19T06:52:28;-0.90;57.10
3312;DHT22;1668;49.648;8.570;2023-01-19T06:54:54;-0.90;63.70
3312;DHT22;1668;49.648;8.570;2023-01-19T06:57:21;-0.80;70.90
3312;DHT22;1668;49.648;8.570;2023-01-19T06:59:50;-0.80;74.80
3312;DHT22;1668;49.648;8.570;2023-01-19T07:02:17;-0.80;79.30
3312;DHT22;1668;49.648;8.570;2023-01-19T07:04:47;-0.80;84.50
3312;DHT22;1668;49.648;8.570;2023-01-19T07:07:16;-0.80;90.40
3312;DHT22;1668;49.648;8.570;2023-01-19T07:09:43;-0.70;92.80
3312;DHT22;1668;49.648;8.570;2023-01-19T07:12:10;-0.70;94.30
3312;DHT22;1668;49.648;8.570;2023-01-19T07:14:37;-0.70;95.20
3312;DHT22;1668;49.648;8.570;2023-01-19T07:17:03;-0.70;95.80
3312;DHT22;1668;49.648;8.570;2023-01-19T07:19:30;-0.70;97.00
3312;DHT22;1668;49.648;8.570;2023-01-19T07:21:59;-0.70;96.50
3312;DHT22;1668;49.648;8.570;2023-01-19T07:24:28;-0.60;96.80
3312;DHT22;1668;49.648;8.570;2023-01-19T07:26:56;-0.60;96.40
3312;DHT22;1668;49.648;8.570;2023-01-19T07:29:23;-0.60;96.40
3312;DHT22;1668;49.648;8.570;2023-01-19T07:31:50;-0.60;96.90
3312;DHT22;1668;49.648;8.570;2023-01-19T07:34:19;-0.50;96.40
3312;DHT22;1668;49.648;8.570;2023-01-19T07:36:45;-0.50;95.40
3312;DHT22;1668;49.648;8.570;2023-01-19T07:39:12;-0.50;95.50
3312;DHT22;1668;49.648;8.570;2023-01-19T07:41:40;-0.50;94.40
3312;DHT22;1668;49.648;8.570;2023-01-19T07:44:07;-0.50;93.90
3312;DHT22;1668;49.648;8.570;2023-01-19T07:46:34;-0.50;92.50
3312;DHT22;1668;49.648;8.570;2023-01-19T07:49:01;-0.40;90.20
3312;DHT22;1668;49.648;8.570;2023-01-19T07:51:28;-0.40;86.90
3312;DHT22;1668;49.648;8.570;2023-01-19T07:53:55;-0.40;82.70
3312;DHT22;1668;49.648;8.570;2023-01-19T07:56:22;-0.40;83.10
3312;DHT22;1668;49.648;8.570;2023-01-19T07:58:51;-0.40;85.60
3312;DHT22;1668;49.648;8.570;2023-01-19T08:01:18;-0.40;83.00
3312;DHT22;1668;49.648;8.570;2023-01-19T08:03:46;-0.30;78.80
3312;DHT22;1668;49.648;8.570;2023-01-19T08:06:19;-0.30;79.40
3312;DHT22;1668;49.648;8.570;2023-01-19T08:08:46;-0.30;83.40
3312;DHT22;1668;49.648;8.570;2023-01-19T08:11:13;-0.30;82.80
3312;DHT22;1668;49.648;8.570;2023-01-19T08:13:40;-0.30;81.50
3312;DHT22;1668;49.648;8.570;2023-01-19T08:16:09;-0.30;80.80
3312;DHT22;1668;49.648;8.570;2023-01-19T08:18:36;-0.30;81.20
3312;DHT22;1668;49.648;8.570;2023-01-19T08:21:03;-0.30;79.80
3312;DHT22;1668;49.648;8.570;2023-01-19T08:23:33;-0.20;81.90
3312;DHT22;1668;49.648;8.570;2023-01-19T08:26:00;-0.20;84.40
3312;DHT22;1668;49.648;8.570;2023-01-19T08:28:27;-0.20;87.30
3312;DHT22;1668;49.648;8.570;2023-01-19T08:30:54;-0.20;90.50
3312;DHT22;1668;49.648;8.570;2023-01-19T08:33:23;-0.20;92.20
3312;DHT22;1668;49.648;8.570;2023-01-19T08:35:51;-0.10;94.10
3312;DHT22;1668;49.648;8.570;2023-01-19T08:38:18;-0.10;94.10
3312;DHT22;1668;49.648;8.570;2023-01-19T08:40:45;-0.10;93.50
3312;DHT22;1668;49.648;8.570;2023-01-19T08:43:13;-0.10;91.10
3312;DHT22;1668;49.648;8.570;2023-01-19T08:45:42;-0.10;91.20
3312;DHT22;1668;49.648;8.570;2023-01-19T08:48:11;-0.10;91.20
3312;DHT22;1668;49.648;8.570;2023-01-19T08:50:39;0.00;92.30
3312;DHT22;1668;49.648;8.570;2023-01-19T08:53:06;0.00;91.30
3312;DHT22;1668;49.648;8.570;2023-01-19T08:55:34;0.00;91.90
3312;DHT22;1668;49.648;8.570;2023-01-19T08:58:02;0.00;91.10
3312;DHT22;1668;49.648;8.570;2023-01-19T09:00:29;0.10;91.70
3312;DHT22;1668;49.648;8.570;2023-01-19T09:02:58;0.10;90.40
3312;DHT22;1668;49.648;8.570;2023-01-19T09:05:26;0.10;90.70
3312;DHT22;1668;49.648;8.570;2023-01-19T09:07:54;0.20;92.20
3312;DHT22;1668;49.648;8.570;2023-01-19T09:10:21;0.20;88.80
3312;DHT22;1668;49.648;8.570;2023-01-19T09:12:48;0.20;87.60
3312;DHT22;1668;49.648;8.570;2023-01-19T09:15:14;0.20;82.50
3312;DHT22;1668;49.648;8.570;2023-01-19T09:17:41;0.30;75.20
3312;DHT22;1668;49.648;8.570;2023-01-19T09:20:09;0.30;71.90
3312;DHT22;1668;49.648;8.570;2023-01-19T09:22:36;0.30;70.00
3312;DHT22;1668;49.648;8.570;2023-01-19T09:25:06;0.30;68.10
3312;DHT22;1668;49.648;8.570;2023-01-19T09:27:34;0.30;57.10
3312;DHT22;1668;49.648;8.570;2023-01-19T09:30:02;0.30;56.90
3312;DHT22;1668;49.648;8.570;2023-01-19T09:32:29;0.30;63.10
3312;DHT22;1668;49.648;8.570;2023-01-19T09:34:56;0.30;73.80
3312;DHT22;1668;49.648;8.570;2023-01-19T09:37:23;0.40;80.80
3312;DHT22;1668;49.648;8.570;2023-01-19T09:39:50;0.50;65.50
3312;DHT22;1668;49.648;8.570;2023-01-19T09:42:22;0.50;69.50
3312;DHT22;1668;49.648;8.570;2023-01-19T09:44:52;0.60;53.00
3312;DHT22;1668;49.648;8.570;2023-01-19T09:47:24;0.60;39.00
3312;DHT22;1668;49.648;8.570;2023-01-19T09:49:55;0.70;34.50
3312;DHT22;1668;49.648;8.570;2023-01-19T09:52:24;0.80;26.70
3312;DHT22;1668;49.648;8.570;2023-01-19T09:54:53;0.80;26.20
3312;DHT22;1668;49.648;8.570;2023-01-19T09:57:22;0.90;19.90
3312;DHT22;1668;49.648;8.570;2023-01-19T09:59:50;1.00;21.10
3312;DHT22;1668;49.648;8.570;2023-01-19T10:02:29;1.00;2.20
3312;DHT22;1668;49.648;8.570;2023-01-19T10:04:59;1.00;1.00
3312;DHT22;1668;49.648;8.570;2023-01-19T10:07:53;1.10;1.00
3312;DHT22;1668;49.648;8.570;2023-01-19T10:10:25;1.10;1.50
3312;DHT22;1668;49.648;8.570;2023-01-19T10:13:09;1.20;1.00
3312;DHT22;1668;49.648;8.570;2023-01-19T10:15:56;1.20;1.00
3312;DHT22;1668;49.648;8.570;2023-01-19T10:18:26;1.30;1.00
3312;DHT22;1668;49.648;8.570;2023-01-19T10:21:02;1.30;1.00
3312;DHT22;1668;49.648;8.570;2023-01-19T10:23:40;1.40;1.00
3312;DHT22;1668;49.648;8.570;2023-01-19T10:26:10;1.50;1.00
3312;DHT22;1668;49.648;8.570;2023-01-19T10:28:40;1.60;1.00
3312;DHT22;1668;49.648;8.570;2023-01-19T10:31:07;1.60;1.00
3312;DHT22;1668;49.648;8.570;2023-01-19T10:33:35;1.70;1.00
3312;DHT22;1668;49.648;8.570;2023-01-19T10:36:04;1.70;1.00
3312;DHT22;1668;49.648;8.570;2023-01-19T10:38:33;1.70;1.00
3312;DHT22;1668;49.648;8.570;2023-01-19T10:41:02;1.70;1.00
3312;DHT22;1668;49.648;8.570;2023-01-19T10:43:40;1.70;1.00
3312;DHT22;1668;49.648;8.570;2023-01-19T10:46:15;1.70;1.00
3312;DHT22;1668;49.648;8.570;2023-01-19T10:48:43;1.70;1.00
3312;DHT22;1668;49.648;8.570;2023-01-19T10:51:10;1.70;1.00
3312;DHT22;1668;49.648;8.570;2023-01-19T10:53:37;1.70;1.00
3312;DHT22;1668;49.648;8.570;2023-01-19T10:56:12;1.70;1.00
3312;DHT22;1668;49.648;8.570;2023-01-19T10:58:41;1.70;1.00
3312;DHT22;1668;49.648;8.570;2023-01-19T11:01:14;1.70;1.00
3312;DHT22;1668;49.648;8.570;2023-01-19T11:03:41;1.70;1.00
3312;DHT22;1668;49.648;8.570;2023-01-19T11:06:24;1.80;99.90
3312;DHT22;1668;49.648;8.570;2023-01-19T11:08:53;1.80;99.90
3312;DHT22;1668;49.648;8.570;2023-01-19T11:11:44;1.80;99.90
3312;DHT22;1668;49.648;8.570;2023-01-19T11:14:13;1.90;99.90
3312;DHT22;1668;49.648;8.570;2023-01-19T11:16:46;1.90;99.90
3312;DHT22;1668;49.648;8.570;2023-01-19T11:19:19;1.90;99.90
3312;DHT22;1668;49.648;8.570;2023-01-19T11:21:47;2.00;99.90
3312;DHT22;1668;49.648;8.570;2023-01-19T11:24:14;2.00;99.90
3312;DHT22;1668;49.648;8.570;2023-01-19T11:26:44;1.90;1.00
3312;DHT22;1668;49.648;8.570;2023-01-19T11:29:19;2.00;1.00
3312;DHT22;1668;49.648;8.570;2023-01-19T11:31:47;2.00;99.90
3312;DHT22;1668;49.648;8.570;2023-01-19T11:34:29;2.00;1.00
3312;DHT22;1668;49.648;8.570;2023-01-19T11:36:58;2.10;99.90
3312;DHT22;1668;49.648;8.570;2023-01-19T11:39:27;2.10;99.90
3312;DHT22;1668;49.648;8.570;2023-01-19T11:41:55;2.10;1.00
3312;DHT22;1668;49.648;8.570;2023-01-19T11:44:28;2.10;99.90
3312;DHT22;1668;49.648;8.570;2023-01-19T11:46:57;2.10;99.90
3312;DHT22;1668;49.648;8.570;2023-01-19T11:49:32;2.10;99.90
3312;DHT22;1668;49.648;8.570;2023-01-19T11:52:05;2.10;99.90
3312;DHT22;1668;49.648;8.570;2023-01-19T11:54:46;2.10;99.90
3312;DHT22;1668;49.648;8.570;2023-01-19T11:57:15;2.00;99.90
3312;DHT22;1668;49.648;8.570;2023-01-19T11:59:44;2.10;99.90
3312;DHT22;1668;49.648;8.570;2023-01-19T12:02:17;2.10;99.90
3312;DHT22;1668;49.648;8.570;2023-01-19T12:04:47;2.00;99.90
3312;DHT22;1668;49.648;8.570;2023-01-19T12:07:26;2.00;99.90
3312;DHT22;1668;49.648;8.570;2023-01-19T12:10:01;2.00;99.90
3312;DHT22;1668;49.648;8.570;2023-01-19T12:12:32;2.00;99.90
3312;DHT22;1668;49.648;8.570;2023-01-19T12:15:07;2.00;99.90
3312;DHT22;1668;49.648;8.570;2023-01-19T12:17:43;2.00;99.90
3312;DHT22;1668;49.648;8.570;2023-01-19T12:20:16;2.00;99.90
3312;DHT22;1668;49.648;8.570;2023-01-19T12:22:51;2.00;1.00
3312;DHT22;1668;49.648;8.570;2023-01-19T12:25:23;2.00;1.00
3312;DHT22;1668;49.648;8.570;2023-01-19T12:27:51;2.00;1.00
3312;DHT22;1668;49.648;8.570;2023-01-19T12:30:23;2.00;1.00
3312;DHT22;1668;49.648;8.570;2023-01-19T12:32:51;1.90;1.00
3312;DHT22;1668;49.648;8.570;2023-01-19T12:35:54;1.90;1.00
3312;DHT22;1668;49.648;8.570;2023-01-19T12:38:34;1.90;1.00
3312;DHT22;1668;49.648;8.570;2023-01-19T12:41:19;1.90;1.00
3312;DHT22;1668;49.648;8.570;2023-01-19T12:44:12;1.90;1.00
3312;DHT22;1668;49.648;8.570;2023-01-19T12:46:37;1.90;1.00
3312;DHT22;1668;49.648;8.570;2023-01-19T12:49:09;1.90;1.00
3312;DHT22;1668;49.648;8.570;2023-01-19T12:51:37;1.90;1.00
3312;DHT22;1668;49.648;8.570;2023-01-19T12:54:07;1.90;1.00
3312;DHT22;1668;49.648;8.570;2023-01-19T12:56:35;1.90;1.00
3312;DHT22;1668;49.648;8.570;2023-01-19T12:59:04;1.90;1.00
3312;DHT22;1668;49.648;8.570;2023-01-19T13:01:31;1.80;1.00
3312;DHT22;1668;49.648;8.570;2023-01-19T13:04:03;1.90;1.00
3312;DHT22;1668;49.648;8.570;2023-01-19T13:07:06;1.80;1.00
3312;DHT22;1668;49.648;8.570;2023-01-19T13:09:36;1.80;1.00
3312;DHT22;1668;49.648;8.570;2023-01-19T13:12:23;1.90;1.00
3312;DHT22;1668;49.648;8.570;2023-01-19T13:14:50;1.80;8.00
3312;DHT22;1668;49.648;8.570;2023-01-19T13:17:45;1.90;19.40
3312;DHT22;1668;49.648;8.570;2023-01-19T13:20:35;1.90;24.30
3312;DHT22;1668;49.648;8.570;2023-01-19T13:23:20;1.90;38.00
3312;DHT22;1668;49.648;8.570;2023-01-19T13:25:58;1.80;33.90
3312;DHT22;1668;49.648;8.570;2023-01-19T13:28:32;1.80;41.20
3312;DHT22;1668;49.648;8.570;2023-01-19T13:31:01;1.80;54.70
3312;DHT22;1668;49.648;8.570;2023-01-19T13:33:36;1.90;54.00
3312;DHT22;1668;49.648;8.570;2023-01-19T13:36:24;1.80;24.20
3312;DHT22;1668;49.648;8.570;2023-01-19T13:38:53;1.80;7.10
3312;DHT22;1668;49.648;8.570;2023-01-19T13:41:22;1.80;15.10
3312;DHT22;1668;49.648;8.570;2023-01-19T13:43:56;1.80;14.80
3312;DHT22;1668;49.648;8.570;2023-01-19T13:46:25;1.80;29.20
3312;DHT22;1668;49.648;8.570;2023-01-19T13:48:54;1.90;30.20
3312;DHT22;1668;49.648;8.570;2023-01-19T13:51:23;1.90;39.70
3312;DHT22;1668;49.648;8.570;2023-01-19T13:53:54;1.90;53.70
3312;DHT22;1668;49.648;8.570;2023-01-19T13:56:23;1.90;49.60
3312;DHT22;1668;49.648;8.570;2023-01-19T13:58:58;1.90;37.70
3312;DHT22;1668;49.648;8.570;2023-01-19T14:01:26;1.90;29.10
3312;DHT22;1668;49.648;8.570;2023-01-19T14:03:54;1.90;26.40
3312;DHT22;1668;49.648;8.570;2023-01-19T14:06:34;1.90;36.70
3312;DHT22;1668;49.648;8.570;2023-01-19T14:09:14;2.00;53.90
3312;DHT22;1668;49.648;8.570;2023-01-19T14:11:43;1.90;62.00
3312;DHT22;1668;49.648;8.570;2023-01-19T14:14:22;2.00;50.00
3312;DHT22;1668;49.648;8.570;2023-01-19T14:16:48;2.00;48.20
3312;DHT22;1668;49.648;8.570;2023-01-19T14:19:15;2.00;42.70
3312;DHT22;1668;49.648;8.570;2023-01-19T14:21:44;2.00;53.40
3312;DHT22;1668;49.648;8.570;2023-01-19T14:24:15;2.00;63.90
3312;DHT22;1668;49.648;8.570;2023-01-19T14:26:45;2.00;81.50
3312;DHT22;1668;49.648;8.570;2023-01-19T14:29:16;2.10;92.00
3312;DHT22;1668;49.648;8.570;2023-01-19T14:31:44;2.10;95.30
3312;DHT22;1668;49.648;8.570;2023-01-19T14:34:31;2.00;98.00
3312;DHT22;1668;49.648;8.570;2023-01-19T14:37:00;2.00;99.90
3312;DHT22;1668;49.648;8.570;2023-01-19T14:39:29;2.10;99.90
3312;DHT22;1668;49.648;8.570;2023-01-19T14:41:58;2.10;99.90
3312;DHT22;1668;49.648;8.570;2023-01-19T14:44:30;2.10;99.90
3312;DHT22;1668;49.648;8.570;2023-01-19T14:46:58;2.00;99.90
3312;DHT22;1668;49.648;8.570;2023-01-19T14:49:30;2.00;99.90
3312;DHT22;1668;49.648;8.570;2023-01-19T14:52:00;2.10;99.90
3312;DHT22;1668;49.648;8.570;2023-01-19T14:54:32;2.00;99.90
3312;DHT22;1668;49.648;8.570;2023-01-19T14:57:00;2.00;99.90
3312;DHT22;1668;49.648;8.570;2023-01-19T14:59:27;2.00;99.90
3312;DHT22;1668;49.648;8.570;2023-01-19T15:01:54;2.00;99.90
3312;DHT22;1668;49.648;8.570;2023-01-19T15:04:21;2.00;99.90
3312;DHT22;1668;49.648;8.570;2023-01-19T15:06:49;2.00;99.90
3312;DHT22;1668;49.648;8.570;2023-01-19T15:09:18;2.00;99.90
3312;DHT22;1668;49.648;8.570;2023-01-19T15:11:46;2.00;86.40
3312;DHT22;1668;49.648;8.570;2023-01-19T15:14:14;1.90;78.00
3312;DHT22;1668;49.648;8.570;2023-01-19T15:16:43;1.90;78.70
3312;DHT22;1668;49.648;8.570;2023-01-19T15:19:11;1.90;82.70
3312;DHT22;1668;49.648;8.570;2023-01-19T15:21:38;1.90;75.90
3312;DHT22;1668;49.648;8.570;2023-01-19T15:24:08;2.00;66.90
3312;DHT22;1668;49.648;8.570;2023-01-19T15:26:38;1.90;59.40
3312;DHT22;1668;49.648;8.570;2023-01-19T15:29:19;1.90;72.20
3312;DHT22;1668;49.648;8.570;2023-01-19T15:31:46;1.90;84.70
3312;DHT22;1668;49.648;8.570;2023-01-19T15:34:13;1.90;89.40
3312;DHT22;1668;49.648;8.570;2023-01-19T15:36:40;1.90;85.60
3312;DHT22;1668;49.648;8.570;2023-01-19T15:39:07;1.90;81.90
3312;DHT22;1668;49.648;8.570;2023-01-19T15:41:37;1.90;85.50
3312;DHT22;1668;49.648;8.570;2023-01-19T15:44:05;1.90;89.90
3312;DHT22;1668;49.648;8.570;2023-01-19T15:46:33;1.90;76.90
3312;DHT22;1668;49.648;8.570;2023-01-19T15:49:00;1.90;87.70
3312;DHT22;1668;49.648;8.570;2023-01-19T15:51:27;1.90;79.80
3312;DHT22;1668;49.648;8.570;2023-01-19T15:53:54;1.90;76.80
3312;DHT22;1668;49.648;8.570;2023-01-19T15:56:22;1.90;83.10
3312;DHT22;1668;49.648;8.570;2023-01-19T15:58:51;1.90;91.00
3312;DHT22;1668;49.648;8.570;2023-01-19T16:01:20;1.80;88.90
3312;DHT22;1668;49.648;8.570;2023-01-19T16:03:47;1.80;87.30
3312;DHT22;1668;49.648;8.570;2023-01-19T16:06:14;1.80;93.30
3312;DHT22;1668;49.648;8.570;2023-01-19T16:08:42;1.80;97.40
3312;DHT22;1668;49.648;8.570;2023-01-19T16:11:10;1.80;98.30
3312;DHT22;1668;49.648;8.570;2023-01-19T16:13:38;1.80;99.90
3312;DHT22;1668;49.648;8.570;2023-01-19T16:16:14;1.80;99.90
3312;DHT22;1668;49.648;8.570;2023-01-19T16:18:41;1.80;99.90
3312;DHT22;1668;49.648;8.570;2023-01-19T16:21:08;1.80;99.90
3312;DHT22;1668;49.648;8.570;2023-01-19T16:23:35;1.80;99.90
3312;DHT22;1668;49.648;8.570;2023-01-19T16:26:03;1.80;99.90
3312;DHT22;1668;49.648;8.570;2023-01-19T16:28:33;1.70;99.90
3312;DHT22;1668;49.648;8.570;2023-01-19T16:31:00;1.70;99.90
3312;DHT22;1668;49.648;8.570;2023-01-19T16:33:28;1.70;99.90